LTFG

Gazipasa Airport

Alanya, Turkey
TAF LTFG 210740Z 2109/2118 06020G35KT 9999 SCT035 BECMG 2109/2112 36009KT
Issued Valid From Valid To
Apr-21 @ 07:40 UTC
(2 hours ago)
Apr-21 @ 09:00 UTC
(48 minutes ago)
Apr-21 @ 18:00 UTC
(in 8 hours)
Apr-21 @ 09:00 to Apr-21 @ 18:00
TAF LTFG 210740Z 2109/2118 06020G35KT 9999 SCT035
Wind Visibility Clouds
60° at 20 knots
 Gusting to 35 knots
10,000+ meters
  • Scattered at 3,500' AGL
Becoming Apr-21 @ 09:00 to Apr-21 @ 18:00
BECMG 2109/2112 36009KT
Wind Visibility Clouds
360° at 9 knots 10,000+ meters
  • Scattered at 3,500' AGL
TAF LTFG 210740Z 2109/2118 06020G35KT 9999 SCT035 BECMG 2109/2112 36009KT
Issued Apr-21 @ 07:40 UTC
(2 hours ago)
Valid From Apr-21 @ 09:00 UTC
(48 minutes ago)
Valid To Apr-21 @ 18:00 UTC
(in 8 hours)
Apr-21 @ 09:00 - Apr-21 @ 18:00
Wind Visibility
60° at 20 knots
 Gusting to 35 knots
10,000+ meters
Clouds
  • Scattered at 3,500' AGL
Becoming Apr-21 @ 09:00 - Apr-21 @ 18:00
Wind Visibility
360° at 9 knots 10,000+ meters
Clouds
  • Scattered at 3,500' AGL